Penney Farms, Florida
Current Conditions -  °F | °C
As of 6:50 AM on Sunday 23 Nov 2014 (Local Time) from KVQQ Reporting Station
Light Rain Light Rain  
Wind Chill: 68°   Ceiling: 900
Heat Index: 68°   Visibility: 5mi
Dew Point: 68°   Wind: 6mph
Humidity: 100%   Direction: NA
Pressure: 30"   Gusts: NA
Location:  29.98°N, 81.81°W
Report Text: KVQQ 231150Z VRB05KT 5SM -RA OVC009 20/20 A3000
Loading
Personal Weather Stations






























Interactive Weather Map New forecast layout! Learn more

10-Day Weather Forecast

Advertisements
Track Severe Weather on mobile